sensor_id;sensor_type;location;lat;lon;timestamp;temperature;humidity
11619;DHT22;5865;48.776;9.280;2022-09-12T04:09:19;8.90;99.90
11619;DHT22;5865;48.776;9.280;2022-09-12T04:11:45;8.90;99.90
11619;DHT22;5865;48.776;9.280;2022-09-12T04:19:07;9.00;99.90
11619;DHT22;5865;48.776;9.280;2022-09-12T04:21:36;8.90;99.90
11619;DHT22;5865;48.776;9.280;2022-09-12T04:24:04;8.90;99.90
11619;DHT22;5865;48.776;9.280;2022-09-12T04:26:32;8.90;99.90
11619;DHT22;5865;48.776;9.280;2022-09-12T04:36:21;9.00;99.90
11619;DHT22;5865;48.776;9.280;2022-09-12T04:41:17;8.80;99.90
11619;DHT22;5865;48.776;9.280;2022-09-12T04:43:46;8.80;99.90
11619;DHT22;5865;48.776;9.280;2022-09-12T04:46:16;8.70;99.90
11619;DHT22;5865;48.776;9.280;2022-09-12T04:48:44;8.70;99.90
11619;DHT22;5865;48.776;9.280;2022-09-12T04:51:14;8.70;99.90
11619;DHT22;5865;48.776;9.280;2022-09-12T04:56:10;8.70;99.90
11619;DHT22;5865;48.776;9.280;2022-09-12T04:58:37;8.60;99.90
11619;DHT22;5865;48.776;9.280;2022-09-12T05:01:07;8.60;99.90
11619;DHT22;5865;48.776;9.280;2022-09-12T05:06:05;8.60;99.90
11619;DHT22;5865;48.776;9.280;2022-09-12T05:08:32;8.60;99.90
11619;DHT22;5865;48.776;9.280;2022-09-12T05:11:01;8.70;99.90
11619;DHT22;5865;48.776;9.280;2022-09-12T05:15:57;8.70;99.90
11619;DHT22;5865;48.776;9.280;2022-09-12T05:18:26;8.70;99.90
11619;DHT22;5865;48.776;9.280;2022-09-12T05:25:50;8.90;99.90
11619;DHT22;5865;48.776;9.280;2022-09-12T05:28:17;9.00;99.90
11619;DHT22;5865;48.776;9.280;2022-09-12T05:33:11;9.00;99.90
11619;DHT22;5865;48.776;9.280;2022-09-12T05:38:07;9.00;99.90
11619;DHT22;5865;48.776;9.280;2022-09-12T05:47:56;9.20;99.90
11619;DHT22;5865;48.776;9.280;2022-09-12T06:00:15;9.70;99.90
11619;DHT22;5865;48.776;9.280;2022-09-12T06:02:43;9.70;99.90
11619;DHT22;5865;48.776;9.280;2022-09-12T06:07:37;10.10;99.90
11619;DHT22;5865;48.776;9.280;2022-09-12T06:10:06;10.10;99.90
11619;DHT22;5865;48.776;9.280;2022-09-12T06:15:01;10.40;99.90
11619;DHT22;5865;48.776;9.280;2022-09-12T06:19:56;10.60;99.90
11619;DHT22;5865;48.776;9.280;2022-09-12T06:27:19;11.10;99.90
11619;DHT22;5865;48.776;9.280;2022-09-12T06:34:41;11.30;99.90
11619;DHT22;5865;48.776;9.280;2022-09-12T06:39:35;11.50;99.90
11619;DHT22;5865;48.776;9.280;2022-09-12T06:42:03;11.50;99.90
11619;DHT22;5865;48.776;9.280;2022-09-12T06:44:34;11.80;99.90
11619;DHT22;5865;48.776;9.280;2022-09-12T06:47:01;11.70;99.90
11619;DHT22;5865;48.776;9.280;2022-09-12T06:49:28;11.70;99.90
11619;DHT22;5865;48.776;9.280;2022-09-12T06:59:18;12.40;99.90
11619;DHT22;5865;48.776;9.280;2022-09-12T07:01:46;12.50;99.90
11619;DHT22;5865;48.776;9.280;2022-09-12T07:04:13;12.50;99.90
11619;DHT22;5865;48.776;9.280;2022-09-12T07:06:41;12.70;99.90
11619;DHT22;5865;48.776;9.280;2022-09-12T07:11:39;12.80;99.90
11619;DHT22;5865;48.776;9.280;2022-09-12T07:14:07;13.10;99.90
11619;DHT22;5865;48.776;9.280;2022-09-12T07:16:35;13.20;99.90
11619;DHT22;5865;48.776;9.280;2022-09-12T07:19:05;13.20;99.90
11619;DHT22;5865;48.776;9.280;2022-09-12T07:24:06;13.70;99.90
11619;DHT22;5865;48.776;9.280;2022-09-12T07:41:25;15.00;99.90
11619;DHT22;5865;48.776;9.280;2022-09-12T07:43:53;15.30;99.90
11619;DHT22;5865;48.776;9.280;2022-09-12T07:46:20;15.60;99.90
11619;DHT22;5865;48.776;9.280;2022-09-12T07:48:51;15.60;99.90
11619;DHT22;5865;48.776;9.280;2022-09-12T08:01:17;16.00;99.90
11619;DHT22;5865;48.776;9.280;2022-09-12T08:06:13;16.40;99.90
11619;DHT22;5865;48.776;9.280;2022-09-12T08:08:41;16.20;99.90
11619;DHT22;5865;48.776;9.280;2022-09-12T08:11:12;16.40;99.90
11619;DHT22;5865;48.776;9.280;2022-09-12T08:13:41;16.40;99.90
11619;DHT22;5865;48.776;9.280;2022-09-12T08:21:13;16.80;99.90
11619;DHT22;5865;48.776;9.280;2022-09-12T08:23:42;17.00;99.90
11619;DHT22;5865;48.776;9.280;2022-09-12T08:26:11;17.10;99.90
11619;DHT22;5865;48.776;9.280;2022-09-12T08:28:39;17.10;99.90
11619;DHT22;5865;48.776;9.280;2022-09-12T08:31:08;17.30;99.90
11619;DHT22;5865;48.776;9.280;2022-09-12T08:33:35;17.30;99.90
11619;DHT22;5865;48.776;9.280;2022-09-12T08:36:03;18.00;99.90
11619;DHT22;5865;48.776;9.280;2022-09-12T08:38:31;18.20;99.90
11619;DHT22;5865;48.776;9.280;2022-09-12T08:41:03;18.60;99.90
11619;DHT22;5865;48.776;9.280;2022-09-12T08:43:48;18.90;99.90
11619;DHT22;5865;48.776;9.280;2022-09-12T08:46:19;18.80;99.90
11619;DHT22;5865;48.776;9.280;2022-09-12T08:48:51;18.80;99.90
11619;DHT22;5865;48.776;9.280;2022-09-12T08:51:19;18.80;99.90
11619;DHT22;5865;48.776;9.280;2022-09-12T08:53:48;19.00;99.90
11619;DHT22;5865;48.776;9.280;2022-09-12T08:56:19;19.40;99.90
11619;DHT22;5865;48.776;9.280;2022-09-12T09:01:29;20.00;99.90
11619;DHT22;5865;48.776;9.280;2022-09-12T09:04:18;19.90;99.90
11619;DHT22;5865;48.776;9.280;2022-09-12T09:07:01;20.30;99.90
11619;DHT22;5865;48.776;9.280;2022-09-12T09:09:44;20.30;99.90
11619;DHT22;5865;48.776;9.280;2022-09-12T09:12:20;20.70;99.90
11619;DHT22;5865;48.776;9.280;2022-09-12T09:15:16;20.80;99.90
11619;DHT22;5865;48.776;9.280;2022-09-12T09:17:51;21.00;99.90
11619;DHT22;5865;48.776;9.280;2022-09-12T09:20:26;21.20;99.90
11619;DHT22;5865;48.776;9.280;2022-09-12T09:22:59;21.40;99.90
11619;DHT22;5865;48.776;9.280;2022-09-12T09:25:37;21.40;99.90
11619;DHT22;5865;48.776;9.280;2022-09-12T09:28:12;21.60;99.90
11619;DHT22;5865;48.776;9.280;2022-09-12T09:30:42;21.50;99.90
11619;DHT22;5865;48.776;9.280;2022-09-12T09:33:17;21.50;99.90
11619;DHT22;5865;48.776;9.280;2022-09-12T09:35:47;21.70;99.90
11619;DHT22;5865;48.776;9.280;2022-09-12T09:38:22;22.10;99.90
11619;DHT22;5865;48.776;9.280;2022-09-12T09:41:04;22.10;99.90
11619;DHT22;5865;48.776;9.280;2022-09-12T09:43:32;22.00;99.90
11619;DHT22;5865;48.776;9.280;2022-09-12T09:48:30;22.20;99.90
11619;DHT22;5865;48.776;9.280;2022-09-12T09:50:58;22.60;99.90
11619;DHT22;5865;48.776;9.280;2022-09-12T09:53:33;22.40;99.90
11619;DHT22;5865;48.776;9.280;2022-09-12T09:56:03;22.50;99.90
11619;DHT22;5865;48.776;9.280;2022-09-12T09:58:32;22.60;99.90
11619;DHT22;5865;48.776;9.280;2022-09-12T10:01:01;23.10;99.90
11619;DHT22;5865;48.776;9.280;2022-09-12T10:03:31;23.00;99.90
11619;DHT22;5865;48.776;9.280;2022-09-12T10:06:00;22.70;99.90
11619;DHT22;5865;48.776;9.280;2022-09-12T10:18:35;23.00;99.90
11619;DHT22;5865;48.776;9.280;2022-09-12T10:23:39;23.50;99.90
11619;DHT22;5865;48.776;9.280;2022-09-12T10:28:38;23.70;99.90
11619;DHT22;5865;48.776;9.280;2022-09-12T10:38:48;24.30;93.00
11619;DHT22;5865;48.776;9.280;2022-09-12T10:46:25;24.30;87.90
11619;DHT22;5865;48.776;9.280;2022-09-12T10:49:24;24.50;83.90
11619;DHT22;5865;48.776;9.280;2022-09-12T10:51:52;24.50;84.50
11619;DHT22;5865;48.776;9.280;2022-09-12T10:54:21;24.50;84.60
11619;DHT22;5865;48.776;9.280;2022-09-12T11:00:06;23.90;86.20
11619;DHT22;5865;48.776;9.280;2022-09-12T11:08:17;24.90;80.30
11619;DHT22;5865;48.776;9.280;2022-09-12T11:10:51;24.80;80.10
11619;DHT22;5865;48.776;9.280;2022-09-12T11:13:52;24.20;83.80
11619;DHT22;5865;48.776;9.280;2022-09-12T11:16:28;24.70;85.30
11619;DHT22;5865;48.776;9.280;2022-09-12T11:19:13;24.70;83.30
11619;DHT22;5865;48.776;9.280;2022-09-12T11:24:31;24.90;80.00
11619;DHT22;5865;48.776;9.280;2022-09-12T11:27:13;24.50;77.20
11619;DHT22;5865;48.776;9.280;2022-09-12T11:29:47;24.30;81.80
11619;DHT22;5865;48.776;9.280;2022-09-12T11:32:37;24.40;82.20
11619;DHT22;5865;48.776;9.280;2022-09-12T11:35:17;24.70;80.00
11619;DHT22;5865;48.776;9.280;2022-09-12T11:38:04;25.30;79.10
11619;DHT22;5865;48.776;9.280;2022-09-12T11:40:39;24.90;73.30
11619;DHT22;5865;48.776;9.280;2022-09-12T11:43:20;25.20;75.10
11619;DHT22;5865;48.776;9.280;2022-09-12T11:45:49;24.70;74.50
11619;DHT22;5865;48.776;9.280;2022-09-12T11:48:25;24.80;77.60
11619;DHT22;5865;48.776;9.280;2022-09-12T11:53:28;24.70;77.80
11619;DHT22;5865;48.776;9.280;2022-09-12T11:56:03;24.70;78.60
11619;DHT22;5865;48.776;9.280;2022-09-12T12:01:08;25.30;72.00
11619;DHT22;5865;48.776;9.280;2022-09-12T12:03:40;25.30;71.50
11619;DHT22;5865;48.776;9.280;2022-09-12T12:06:13;25.60;70.60
11619;DHT22;5865;48.776;9.280;2022-09-12T12:08:46;25.70;68.70
11619;DHT22;5865;48.776;9.280;2022-09-12T12:11:15;25.10;68.10
11619;DHT22;5865;48.776;9.280;2022-09-12T12:13:50;24.80;68.90
11619;DHT22;5865;48.776;9.280;2022-09-12T12:16:22;24.50;73.30
11619;DHT22;5865;48.776;9.280;2022-09-12T12:18:53;24.60;73.80
11619;DHT22;5865;48.776;9.280;2022-09-12T12:21:34;25.30;74.50
11619;DHT22;5865;48.776;9.280;2022-09-12T12:24:18;25.40;75.90
11619;DHT22;5865;48.776;9.280;2022-09-12T12:27:00;25.40;74.20
11619;DHT22;5865;48.776;9.280;2022-09-12T12:29:41;25.40;75.60
11619;DHT22;5865;48.776;9.280;2022-09-12T12:32:20;25.20;75.70
11619;DHT22;5865;48.776;9.280;2022-09-12T12:34:47;25.20;75.70
11619;DHT22;5865;48.776;9.280;2022-09-12T12:37:49;25.60;70.60
11619;DHT22;5865;48.776;9.280;2022-09-12T12:42:59;25.10;70.40
11619;DHT22;5865;48.776;9.280;2022-09-12T12:46:01;25.10;71.30
11619;DHT22;5865;48.776;9.280;2022-09-12T12:48:35;24.90;69.60
11619;DHT22;5865;48.776;9.280;2022-09-12T12:51:39;24.90;70.70
11619;DHT22;5865;48.776;9.280;2022-09-12T12:57:05;25.40;67.80
11619;DHT22;5865;48.776;9.280;2022-09-12T12:59:46;25.50;67.20
11619;DHT22;5865;48.776;9.280;2022-09-12T13:02:18;25.60;67.30
11619;DHT22;5865;48.776;9.280;2022-09-12T13:07:24;25.60;67.80
11619;DHT22;5865;48.776;9.280;2022-09-12T13:09:53;25.20;65.90
11619;DHT22;5865;48.776;9.280;2022-09-12T13:12:24;25.10;67.30
11619;DHT22;5865;48.776;9.280;2022-09-12T13:14:54;25.10;67.40
11619;DHT22;5865;48.776;9.280;2022-09-12T13:20:13;25.10;65.80
11619;DHT22;5865;48.776;9.280;2022-09-12T13:22:43;25.10;64.20
11619;DHT22;5865;48.776;9.280;2022-09-12T13:25:20;25.20;66.60
11619;DHT22;5865;48.776;9.280;2022-09-12T13:28:14;25.30;66.30
11619;DHT22;5865;48.776;9.280;2022-09-12T13:30:44;25.30;65.60
11619;DHT22;5865;48.776;9.280;2022-09-12T13:33:18;25.60;64.70
11619;DHT22;5865;48.776;9.280;2022-09-12T13:38:50;25.70;68.70
11619;DHT22;5865;48.776;9.280;2022-09-12T13:43:57;26.00;66.30
11619;DHT22;5865;48.776;9.280;2022-09-12T13:46:27;26.70;66.00
11619;DHT22;5865;48.776;9.280;2022-09-12T13:48:57;27.00;64.10
11619;DHT22;5865;48.776;9.280;2022-09-12T13:51:26;27.90;63.10
11619;DHT22;5865;48.776;9.280;2022-09-12T13:53:56;28.10;58.60
11619;DHT22;5865;48.776;9.280;2022-09-12T13:56:23;28.20;57.10
11619;DHT22;5865;48.776;9.280;2022-09-12T13:58:51;28.10;57.00
11619;DHT22;5865;48.776;9.280;2022-09-12T14:01:22;28.80;55.20
11619;DHT22;5865;48.776;9.280;2022-09-12T14:03:50;28.40;56.40
11619;DHT22;5865;48.776;9.280;2022-09-12T14:06:42;30.00;53.60
11619;DHT22;5865;48.776;9.280;2022-09-12T14:09:12;29.70;53.50
11619;DHT22;5865;48.776;9.280;2022-09-12T14:11:39;28.50;53.20
11619;DHT22;5865;48.776;9.280;2022-09-12T14:14:19;30.30;51.10
11619;DHT22;5865;48.776;9.280;2022-09-12T14:19:22;31.60;45.30
11619;DHT22;5865;48.776;9.280;2022-09-12T14:21:51;31.40;45.60
11619;DHT22;5865;48.776;9.280;2022-09-12T14:24:19;32.30;44.30
11619;DHT22;5865;48.776;9.280;2022-09-12T14:26:49;35.30;38.60
11619;DHT22;5865;48.776;9.280;2022-09-12T14:29:17;35.20;38.50
11619;DHT22;5865;48.776;9.280;2022-09-12T14:34:15;33.80;39.60
11619;DHT22;5865;48.776;9.280;2022-09-12T14:36:44;35.20;37.80
11619;DHT22;5865;48.776;9.280;2022-09-12T14:39:19;35.90;36.70
11619;DHT22;5865;48.776;9.280;2022-09-12T14:41:48;36.50;35.40
11619;DHT22;5865;48.776;9.280;2022-09-12T14:44:18;33.20;36.20
11619;DHT22;5865;48.776;9.280;2022-09-12T14:46:46;32.90;38.70
11619;DHT22;5865;48.776;9.280;2022-09-12T14:49:17;32.10;38.80
11619;DHT22;5865;48.776;9.280;2022-09-12T14:51:53;30.90;40.50
11619;DHT22;5865;48.776;9.280;2022-09-12T14:54:39;30.80;41.20
11619;DHT22;5865;48.776;9.280;2022-09-12T14:57:31;31.90;40.80
11619;DHT22;5865;48.776;9.280;2022-09-12T15:00:15;33.10;39.10
11619;DHT22;5865;48.776;9.280;2022-09-12T15:02:45;32.80;39.80
11619;DHT22;5865;48.776;9.280;2022-09-12T15:05:25;34.80;38.60
11619;DHT22;5865;48.776;9.280;2022-09-12T15:07:55;31.90;38.70
11619;DHT22;5865;48.776;9.280;2022-09-12T15:10:25;31.90;38.80
11619;DHT22;5865;48.776;9.280;2022-09-12T15:13:18;31.00;41.20
11619;DHT22;5865;48.776;9.280;2022-09-12T15:15:48;29.60;43.60
11619;DHT22;5865;48.776;9.280;2022-09-12T15:20:46;26.40;48.50
11619;DHT22;5865;48.776;9.280;2022-09-12T15:23:17;26.40;49.00
11619;DHT22;5865;48.776;9.280;2022-09-12T15:25:45;25.50;50.00
11619;DHT22;5865;48.776;9.280;2022-09-12T15:28:17;25.30;52.00
11619;DHT22;5865;48.776;9.280;2022-09-12T15:33:14;25.10;51.90
11619;DHT22;5865;48.776;9.280;2022-09-12T15:35:41;25.00;53.10
11619;DHT22;5865;48.776;9.280;2022-09-12T15:38:09;24.90;53.40
11619;DHT22;5865;48.776;9.280;2022-09-12T15:45:32;24.80;55.00
11619;DHT22;5865;48.776;9.280;2022-09-12T15:48:00;24.80;54.20
11619;DHT22;5865;48.776;9.280;2022-09-12T15:50:28;24.80;54.60
11619;DHT22;5865;48.776;9.280;2022-09-12T15:52:57;24.70;54.40
11619;DHT22;5865;48.776;9.280;2022-09-12T15:55:28;24.60;55.00
11619;DHT22;5865;48.776;9.280;2022-09-12T15:57:57;24.50;54.90
11619;DHT22;5865;48.776;9.280;2022-09-12T16:02:52;24.50;55.30
11619;DHT22;5865;48.776;9.280;2022-09-12T16:05:21;24.40;55.50
11619;DHT22;5865;48.776;9.280;2022-09-12T16:07:50;24.40;55.50
11619;DHT22;5865;48.776;9.280;2022-09-12T16:10:21;24.30;55.70
11619;DHT22;5865;48.776;9.280;2022-09-12T16:15:18;23.90;56.50
11619;DHT22;5865;48.776;9.280;2022-09-12T16:17:46;24.00;56.70
11619;DHT22;5865;48.776;9.280;2022-09-12T16:20:13;24.00;57.10
11619;DHT22;5865;48.776;9.280;2022-09-12T16:22:40;24.10;57.90
11619;DHT22;5865;48.776;9.280;2022-09-12T16:25:07;24.10;58.00
11619;DHT22;5865;48.776;9.280;2022-09-12T16:27:35;24.10;58.40
11619;DHT22;5865;48.776;9.280;2022-09-12T16:30:04;24.10;59.00
11619;DHT22;5865;48.776;9.280;2022-09-12T16:34:59;23.90;59.00
11619;DHT22;5865;48.776;9.280;2022-09-12T16:37:26;23.90;59.10
11619;DHT22;5865;48.776;9.280;2022-09-12T16:44:47;23.60;59.90
11619;DHT22;5865;48.776;9.280;2022-09-12T16:47:16;23.50;60.50
11619;DHT22;5865;48.776;9.280;2022-09-12T16:49:43;23.50;61.20
11619;DHT22;5865;48.776;9.280;2022-09-12T16:54:41;23.30;61.40
11619;DHT22;5865;48.776;9.280;2022-09-12T16:57:10;23.00;63.00
11619;DHT22;5865;48.776;9.280;2022-09-12T16:59:37;22.90;63.40
11619;DHT22;5865;48.776;9.280;2022-09-12T17:02:04;22.90;63.40
11619;DHT22;5865;48.776;9.280;2022-09-12T17:04:33;22.80;64.60
11619;DHT22;5865;48.776;9.280;2022-09-12T17:07:00;22.60;65.90
11619;DHT22;5865;48.776;9.280;2022-09-12T17:09:27;22.50;67.00
11619;DHT22;5865;48.776;9.280;2022-09-12T17:11:54;22.40;69.60
11619;DHT22;5865;48.776;9.280;2022-09-12T17:14:22;22.00;74.00
11619;DHT22;5865;48.776;9.280;2022-09-12T17:16:49;21.80;75.10
11619;DHT22;5865;48.776;9.280;2022-09-12T17:19:18;21.50;77.50
11619;DHT22;5865;48.776;9.280;2022-09-12T17:21:47;21.40;78.00
11619;DHT22;5865;48.776;9.280;2022-09-12T17:24:15;21.20;81.30
11619;DHT22;5865;48.776;9.280;2022-09-12T17:26:42;20.70;85.60
11619;DHT22;5865;48.776;9.280;2022-09-12T17:29:10;20.50;89.60
11619;DHT22;5865;48.776;9.280;2022-09-12T17:31:38;20.50;90.30
11619;DHT22;5865;48.776;9.280;2022-09-12T17:34:05;20.10;92.60
11619;DHT22;5865;48.776;9.280;2022-09-12T17:36:32;19.90;95.00
11619;DHT22;5865;48.776;9.280;2022-09-12T17:39:02;19.60;97.70
11619;DHT22;5865;48.776;9.280;2022-09-12T17:41:30;19.60;98.40
11619;DHT22;5865;48.776;9.280;2022-09-12T17:43:58;19.20;99.90
11619;DHT22;5865;48.776;9.280;2022-09-12T17:46:29;19.00;99.90
11619;DHT22;5865;48.776;9.280;2022-09-12T17:48:57;18.70;99.90
11619;DHT22;5865;48.776;9.280;2022-09-12T17:51:26;18.60;99.90
11619;DHT22;5865;48.776;9.280;2022-09-12T17:53:56;18.40;99.90
11619;DHT22;5865;48.776;9.280;2022-09-12T17:56:26;18.30;99.90
11619;DHT22;5865;48.776;9.280;2022-09-12T18:01:21;18.00;99.90
11619;DHT22;5865;48.776;9.280;2022-09-12T18:04:08;18.00;99.90
11619;DHT22;5865;48.776;9.280;2022-09-12T18:06:35;17.80;99.90
11619;DHT22;5865;48.776;9.280;2022-09-12T18:09:05;17.70;99.90
11619;DHT22;5865;48.776;9.280;2022-09-12T18:11:33;17.70;99.90
11619;DHT22;5865;48.776;9.280;2022-09-12T18:14:01;17.60;99.90
11619;DHT22;5865;48.776;9.280;2022-09-12T18:16:28;17.40;99.90
11619;DHT22;5865;48.776;9.280;2022-09-12T18:18:57;17.30;99.90
11619;DHT22;5865;48.776;9.280;2022-09-12T18:26:21;16.90;99.90
11619;DHT22;5865;48.776;9.280;2022-09-12T18:28:49;17.00;99.90
11619;DHT22;5865;48.776;9.280;2022-09-12T18:31:18;16.90;99.90
11619;DHT22;5865;48.776;9.280;2022-09-12T18:33:46;16.80;99.90
11619;DHT22;5865;48.776;9.280;2022-09-12T18:36:14;16.70;99.90
11619;DHT22;5865;48.776;9.280;2022-09-12T18:38:42;16.70;99.90
11619;DHT22;5865;48.776;9.280;2022-09-12T18:41:10;16.50;99.90
11619;DHT22;5865;48.776;9.280;2022-09-12T18:43:38;16.60;99.90
11619;DHT22;5865;48.776;9.280;2022-09-12T18:51:03;16.50;99.90
11619;DHT22;5865;48.776;9.280;2022-09-12T18:53:31;16.60;99.90
11619;DHT22;5865;48.776;9.280;2022-09-12T18:56:03;16.60;99.90
11619;DHT22;5865;48.776;9.280;2022-09-12T18:58:30;16.40;99.90
11619;DHT22;5865;48.776;9.280;2022-09-12T19:00:57;16.30;99.90
11619;DHT22;5865;48.776;9.280;2022-09-12T19:03:26;16.30;99.90
11619;DHT22;5865;48.776;9.280;2022-09-12T19:10:54;15.90;99.90
11619;DHT22;5865;48.776;9.280;2022-09-12T19:13:21;15.70;99.90
11619;DHT22;5865;48.776;9.280;2022-09-12T19:18:15;15.60;99.90
11619;DHT22;5865;48.776;9.280;2022-09-12T19:20:43;15.60;99.90
11619;DHT22;5865;48.776;9.280;2022-09-12T19:25:38;15.40;99.90
11619;DHT22;5865;48.776;9.280;2022-09-12T19:28:05;15.30;99.90
11619;DHT22;5865;48.776;9.280;2022-09-12T19:30:32;15.20;99.90
11619;DHT22;5865;48.776;9.280;2022-09-12T19:32:59;15.20;99.90
11619;DHT22;5865;48.776;9.280;2022-09-12T19:35:26;15.20;99.90
11619;DHT22;5865;48.776;9.280;2022-09-12T19:37:54;15.20;99.90
11619;DHT22;5865;48.776;9.280;2022-09-12T19:40:21;15.20;99.90
11619;DHT22;5865;48.776;9.280;2022-09-12T19:42:48;15.20;99.90
11619;DHT22;5865;48.776;9.280;2022-09-12T19:55:07;15.00;99.90
11619;DHT22;5865;48.776;9.280;2022-09-12T19:57:34;15.00;99.90
11619;DHT22;5865;48.776;9.280;2022-09-12T20:00:02;14.90;99.90
11619;DHT22;5865;48.776;9.280;2022-09-12T20:02:31;14.90;99.90
11619;DHT22;5865;48.776;9.280;2022-09-12T20:07:26;14.80;99.90
11619;DHT22;5865;48.776;9.280;2022-09-12T20:14:51;14.70;99.90
11619;DHT22;5865;48.776;9.280;2022-09-12T20:17:17;14.70;99.90
11619;DHT22;5865;48.776;9.280;2022-09-12T20:22:11;14.60;99.90
11619;DHT22;5865;48.776;9.280;2022-09-12T20:24:38;14.60;99.90
11619;DHT22;5865;48.776;9.280;2022-09-12T20:27:05;14.50;99.90
11619;DHT22;5865;48.776;9.280;2022-09-12T20:29:34;14.50;99.90
11619;DHT22;5865;48.776;9.280;2022-09-12T20:32:01;14.40;99.90
11619;DHT22;5865;48.776;9.280;2022-09-12T20:34:28;14.30;99.90
11619;DHT22;5865;48.776;9.280;2022-09-12T20:39:22;14.20;99.90
11619;DHT22;5865;48.776;9.280;2022-09-12T20:44:16;14.10;99.90
11619;DHT22;5865;48.776;9.280;2022-09-12T20:49:14;14.10;99.90
11619;DHT22;5865;48.776;9.280;2022-09-12T20:51:41;14.00;99.90
11619;DHT22;5865;48.776;9.280;2022-09-12T20:54:09;14.10;99.90
11619;DHT22;5865;48.776;9.280;2022-09-12T20:56:36;13.90;99.90
11619;DHT22;5865;48.776;9.280;2022-09-12T20:59:04;13.90;99.90
11619;DHT22;5865;48.776;9.280;2022-09-12T21:01:31;13.90;99.90
11619;DHT22;5865;48.776;9.280;2022-09-12T21:04:00;13.90;99.90
11619;DHT22;5865;48.776;9.280;2022-09-12T21:06:27;13.70;99.90
11619;DHT22;5865;48.776;9.280;2022-09-12T21:13:53;13.60;99.90
11619;DHT22;5865;48.776;9.280;2022-09-12T21:16:21;13.60;99.90
11619;DHT22;5865;48.776;9.280;2022-09-12T21:18:52;13.60;99.90
11619;DHT22;5865;48.776;9.280;2022-09-12T21:21:22;13.50;99.90
11619;DHT22;5865;48.776;9.280;2022-09-12T21:23:49;13.60;99.90
11619;DHT22;5865;48.776;9.280;2022-09-12T21:26:16;13.60;99.90
11619;DHT22;5865;48.776;9.280;2022-09-12T21:28:43;13.60;99.90
11619;DHT22;5865;48.776;9.280;2022-09-12T21:31:10;13.70;99.90
11619;DHT22;5865;48.776;9.280;2022-09-12T21:33:37;13.70;99.90
11619;DHT22;5865;48.776;9.280;2022-09-12T21:36:05;13.70;99.90
11619;DHT22;5865;48.776;9.280;2022-09-12T21:38:34;13.60;99.90
11619;DHT22;5865;48.776;9.280;2022-09-12T21:41:05;13.60;99.90
11619;DHT22;5865;48.776;9.280;2022-09-12T21:43:33;13.60;99.90
11619;DHT22;5865;48.776;9.280;2022-09-12T21:46:00;13.60;99.90
11619;DHT22;5865;48.776;9.280;2022-09-12T21:55:51;13.50;99.90
11619;DHT22;5865;48.776;9.280;2022-09-12T22:00:45;13.40;99.90
11619;DHT22;5865;48.776;9.280;2022-09-12T22:03:13;13.40;99.90
11619;DHT22;5865;48.776;9.280;2022-09-12T22:05:40;13.40;99.90
11619;DHT22;5865;48.776;9.280;2022-09-12T22:08:08;13.40;99.90
11619;DHT22;5865;48.776;9.280;2022-09-12T22:22:57;13.20;99.90
11619;DHT22;5865;48.776;9.280;2022-09-12T22:28:10;13.00;99.90
11619;DHT22;5865;48.776;9.280;2022-09-12T22:45:28;12.70;99.90
11619;DHT22;5865;48.776;9.280;2022-09-12T22:57:48;12.60;99.90
11619;DHT22;5865;48.776;9.280;2022-09-12T23:05:15;12.60;99.90
11619;DHT22;5865;48.776;9.280;2022-09-12T23:07:43;12.80;99.90
11619;DHT22;5865;48.776;9.280;2022-09-12T23:10:10;12.90;99.90
11619;DHT22;5865;48.776;9.280;2022-09-12T23:15:05;13.00;99.90
11619;DHT22;5865;48.776;9.280;2022-09-12T23:29:52;13.00;99.90
11619;DHT22;5865;48.776;9.280;2022-09-12T23:49:32;12.60;99.90
11619;DHT22;5865;48.776;9.280;2022-09-12T23:51:59;12.50;99.90
